Time;durP1;ratioP1;P1;durP2;ratioP2;P2;SDS_P1;SDS_P2;PMS_P1;PMS_P2;Temp;Humidity;BMP_temperature;BMP_pressure;BME280_temperature;BME280_humidity;BME280_pressure;Samples;Min_cycle;Max_cycle;Signal;HPM_P1;HPM_P2
2023/06/02 00:02:16;;;;;;;8.95;6.03;;;;;;;16.05;91.48;94729.03;5053486;28;20579;-81
2023/06/02 00:04:42;;;;;;;6.82;5.22;;;;;;;15.97;91.30;94729.47;5042278;28;20171;-81
2023/06/02 00:07:08;;;;;;;11.10;5.53;;;;;;;15.99;91.85;94724.75;5042471;28;20182;-81
2023/06/02 00:09:38;;;;;;;12.98;6.15;;;;;;;16.01;92.35;94722.63;5049132;28;20175;-81
2023/06/02 00:12:05;;;;;;;13.07;5.70;;;;;;;16.05;92.18;94726.41;5043028;28;20171;-81
2023/06/02 00:14:31;;;;;;;9.30;6.10;;;;;;;15.76;92.46;94691.25;5047877;28;20163;-81
2023/06/02 00:17:00;;;;;;;8.45;6.07;;;;;;;15.75;92.88;94702.13;5054326;28;20183;-81
2023/06/02 00:19:33;;;;;;;7.75;5.53;;;;;;;15.64;92.84;94700.41;5053409;28;20175;-81
2023/06/02 00:22:01;;;;;;;11.93;5.88;;;;;;;15.72;92.48;94719.34;5042174;28;20183;-81
2023/06/02 00:24:27;;;;;;;7.28;5.65;;;;;;;15.48;93.28;94712.59;5041355;28;20172;-81
2023/06/02 00:26:52;;;;;;;11.15;6.28;;;;;;;15.49;93.51;94701.75;5040588;28;20250;-81
2023/06/02 00:29:17;;;;;;;8.43;5.50;;;;;;;15.73;93.72;94706.88;5046141;28;20182;-81
2023/06/02 00:31:43;;;;;;;10.85;6.00;;;;;;;15.68;93.37;94693.53;5042856;28;20765;-81
2023/06/02 00:34:09;;;;;;;7.53;5.93;;;;;;;15.82;92.77;94705.41;5036722;28;20543;-81
2023/06/02 00:36:34;;;;;;;9.60;5.68;;;;;;;15.90;92.69;94710.28;5033774;28;20194;-81
2023/06/02 00:38:59;;;;;;;8.65;5.45;;;;;;;15.88;92.57;94707.06;5033741;28;20282;-81
2023/06/02 00:41:25;;;;;;;9.57;5.28;;;;;;;15.88;92.39;94709.72;5033441;28;20229;-81
2023/06/02 00:43:51;;;;;;;8.77;5.63;;;;;;;15.95;92.68;94714.84;5033999;28;20184;-81
2023/06/02 00:46:17;;;;;;;6.82;5.03;;;;;;;15.83;92.63;94694.53;5033627;28;20253;-81
2023/06/02 00:48:43;;;;;;;11.57;5.60;;;;;;;16.01;92.85;94713.84;5043154;28;20663;-81
2023/06/02 00:51:10;;;;;;;8.13;5.70;;;;;;;16.04;92.67;94716.00;5044949;28;20174;-81
2023/06/02 00:53:37;;;;;;;7.78;6.07;;;;;;;16.07;92.79;94712.88;5044520;28;20178;-81
2023/06/02 00:56:02;;;;;;;10.52;6.38;;;;;;;16.07;92.95;94713.69;5040036;28;20175;-81
2023/06/02 00:58:28;;;;;;;8.35;6.03;;;;;;;16.06;92.53;94706.75;5032901;28;20180;-81
2023/06/02 01:00:54;;;;;;;10.80;6.28;;;;;;;15.94;92.95;94700.75;5040002;28;20597;-81
2023/06/02 01:03:21;;;;;;;10.73;5.65;;;;;;;15.88;92.97;94700.97;5046538;28;20172;-81
2023/06/02 01:05:51;;;;;;;11.32;5.68;;;;;;;15.68;93.41;94675.75;5042637;28;20160;-81
2023/06/02 01:08:17;;;;;;;9.80;5.88;;;;;;;15.78;93.88;94691.00;5043239;28;20179;-81
2023/06/02 01:10:44;;;;;;;12.90;6.78;;;;;;;15.76;93.86;94670.03;5045232;28;20175;-81
2023/06/02 01:13:09;;;;;;;7.45;5.55;;;;;;;15.85;93.68;94681.81;5041057;28;20250;-81
2023/06/02 01:15:35;;;;;;;11.57;5.45;;;;;;;15.90;93.40;94680.28;5045337;28;20308;-81
2023/06/02 01:18:08;;;;;;;11.68;6.80;;;;;;;16.02;93.04;94695.00;5036844;28;20192;-81
2023/06/02 01:20:36;;;;;;;21.88;13.50;;;;;;;15.95;92.64;94690.94;5033045;28;20183;-81
2023/06/02 01:23:15;;;;;;;22.30;13.30;;;;;;;16.00;92.96;94693.69;5038035;28;20163;-81
2023/06/02 01:25:40;;;;;;;42.72;18.25;;;;;;;16.03;92.55;94688.66;5043766;28;20308;-81
2023/06/02 01:28:06;;;;;;;24.58;14.25;;;;;;;15.94;92.47;94678.72;5040431;28;20266;-81
2023/06/02 01:30:32;;;;;;;13.85;9.35;;;;;;;15.90;92.53;94667.81;5038040;28;20668;-81
2023/06/02 01:33:02;;;;;;;12.45;8.63;;;;;;;16.00;92.31;94678.53;5043467;28;20650;-81
2023/06/02 01:35:31;;;;;;;19.23;12.23;;;;;;;15.91;92.61;94669.41;5043358;28;21013;-81
2023/06/02 01:37:59;;;;;;;30.27;19.60;;;;;;;15.96;92.79;94680.09;5032397;28;20179;-81
2023/06/02 01:40:27;;;;;;;28.52;14.73;;;;;;;16.02;93.01;94688.91;5032885;28;20534;-81
2023/06/02 01:42:54;;;;;;;14.55;8.55;;;;;;;15.91;92.79;94671.28;5037976;28;20172;-81
2023/06/02 01:45:21;;;;;;;27.17;17.90;;;;;;;15.97;92.19;94688.84;5040374;28;20163;-81
2023/06/02 01:47:46;;;;;;;29.95;17.63;;;;;;;16.01;92.79;94677.47;5039264;28;20174;-80
2023/06/02 01:50:12;;;;;;;12.85;7.20;;;;;;;15.78;92.24;94654.66;5046250;28;20174;-81
2023/06/02 01:52:37;;;;;;;11.20;7.55;;;;;;;15.74;92.03;94664.16;5052758;28;20155;-80
2023/06/02 01:55:03;;;;;;;10.40;6.30;;;;;;;15.87;92.16;94684.22;5052352;28;20250;-81
2023/06/02 01:57:29;;;;;;;20.88;13.50;;;;;;;15.85;92.36;94681.81;5052212;28;20187;-81
2023/06/02 01:59:55;;;;;;;23.08;12.48;;;;;;;15.78;92.72;94664.47;5052282;28;20247;-80
2023/06/02 02:02:20;;;;;;;13.52;7.97;;;;;;;15.80;92.78;94659.72;5051955;28;20253;-81
2023/06/02 02:04:46;;;;;;;14.73;9.35;;;;;;;15.85;92.67;94670.38;5052035;28;20156;-81
2023/06/02 02:07:11;;;;;;;18.17;9.38;;;;;;;15.79;92.68;94668.72;5043581;28;20519;-81
2023/06/02 02:09:38;;;;;;;17.48;10.50;;;;;;;15.89;92.57;94679.47;5043922;28;20641;-79
2023/06/02 02:12:04;;;;;;;14.00;8.35;;;;;;;15.89;92.67;94678.66;5046107;28;20228;-80
2023/06/02 02:14:30;;;;;;;10.10;5.65;;;;;;;15.85;92.67;94676.50;5044460;28;20175;-80
2023/06/02 02:17:00;;;;;;;7.63;5.15;;;;;;;15.58;92.87;94648.28;5044398;28;20266;-80
2023/06/02 02:19:31;;;;;;;15.85;7.00;;;;;;;15.57;94.01;94671.38;5043095;28;20416;-79
2023/06/02 02:21:56;;;;;;;10.25;5.53;;;;;;;15.55;94.27;94678.78;5044646;28;20214;-80
2023/06/02 02:24:22;;;;;;;11.55;5.82;;;;;;;15.62;94.01;94673.28;5055875;28;20171;-79
2023/06/02 02:26:47;;;;;;;14.63;7.85;;;;;;;15.57;93.58;94666.06;5054715;28;20552;-80
2023/06/02 02:29:13;;;;;;;8.10;5.72;;;;;;;15.75;93.87;94681.69;5046429;28;20178;-80
2023/06/02 02:31:38;;;;;;;10.48;5.38;;;;;;;15.71;93.74;94659.34;5044248;28;20182;-80
2023/06/02 02:34:03;;;;;;;7.72;5.00;;;;;;;15.80;93.18;94678.31;5052106;28;20179;-79
2023/06/02 02:36:29;;;;;;;9.98;5.88;;;;;;;15.71;93.14;94662.00;5044595;28;20231;-79
2023/06/02 02:38:55;;;;;;;11.10;6.65;;;;;;;15.83;93.49;94673.28;5044028;28;20168;-80
2023/06/02 02:41:20;;;;;;;22.45;13.50;;;;;;;15.82;93.37;94668.25;5053707;28;20259;-80
2023/06/02 02:43:46;;;;;;;16.73;11.80;;;;;;;15.73;93.74;94662.56;5055745;28;20220;-80
2023/06/02 02:46:11;;;;;;;18.75;11.15;;;;;;;15.76;93.98;94671.88;5054252;28;20294;-80
2023/06/02 02:48:36;;;;;;;12.13;7.13;;;;;;;15.76;93.94;94672.66;5055834;28;20293;-80
2023/06/02 02:51:02;;;;;;;14.88;9.40;;;;;;;15.68;94.34;94648.41;5055504;28;20611;-80
2023/06/02 02:53:31;;;;;;;10.70;8.23;;;;;;;15.81;94.49;94675.41;5047956;28;20255;-80
2023/06/02 02:55:57;;;;;;;27.75;16.05;;;;;;;15.71;94.21;94658.56;5047603;28;20175;-79
2023/06/02 02:58:24;;;;;;;23.58;12.52;;;;;;;15.85;94.41;94665.88;5043080;28;20210;-79
2023/06/02 03:00:50;;;;;;;14.52;8.55;;;;;;;15.87;94.00;94662.97;5039688;28;20781;-79
2023/06/02 03:03:15;;;;;;;15.95;9.65;;;;;;;15.88;94.10;94664.59;5046360;28;20194;-79
2023/06/02 03:05:41;;;;;;;15.65;7.50;;;;;;;15.78;93.84;94649.34;5052914;28;20186;-79
2023/06/02 03:08:09;;;;;;;12.55;6.30;;;;;;;15.89;93.50;94676.81;5055156;28;20507;-79
2023/06/02 03:10:35;;;;;;;15.57;8.10;;;;;;;15.75;93.88;94649.84;5048798;28;20183;-80
2023/06/02 03:13:00;;;;;;;15.15;7.28;;;;;;;15.92;93.88;94670.19;5042831;28;20643;-80
2023/06/02 03:15:27;;;;;;;14.15;6.40;;;;;;;15.91;93.96;94677.38;5045110;28;20190;-80
2023/06/02 03:17:55;;;;;;;12.10;6.18;;;;;;;15.89;93.90;94671.50;5046388;28;20681;-79
2023/06/02 03:20:21;;;;;;;11.80;6.13;;;;;;;15.86;94.08;94664.03;5045448;28;20188;-79
2023/06/02 03:22:47;;;;;;;11.15;6.78;;;;;;;15.89;94.36;94668.84;5045331;28;20203;-80
2023/06/02 03:25:13;;;;;;;16.13;9.00;;;;;;;15.95;94.42;94667.06;5039713;28;20195;-81
2023/06/02 03:27:39;;;;;;;33.35;16.35;;;;;;;15.94;94.24;94663.59;5048907;28;20181;-83
2023/06/02 03:30:06;;;;;;;35.90;18.85;;;;;;;16.08;94.08;94677.31;5055117;28;20217;-81
2023/06/02 03:32:31;;;;;;;22.33;14.15;;;;;;;16.00;93.93;94659.94;5054821;28;20254;-80
2023/06/02 03:34:57;;;;;;;25.67;14.07;;;;;;;16.14;93.87;94678.94;5047617;28;20266;-80
2023/06/02 03:37:22;;;;;;;18.00;11.45;;;;;;;16.06;93.80;94663.47;5044670;28;20278;-82
2023/06/02 03:39:48;;;;;;;17.65;9.55;;;;;;;15.90;93.98;94624.53;5049403;28;20279;-81
2023/06/02 03:42:13;;;;;;;11.88;6.07;;;;;;;16.23;93.98;94670.28;5040941;28;20544;-81
2023/06/02 03:44:39;;;;;;;15.30;7.18;;;;;;;16.06;93.72;94635.06;5038442;28;20658;-81
2023/06/02 03:47:05;;;;;;;21.63;7.65;;;;;;;16.31;94.02;94670.88;5050032;28;20254;-82
2023/06/02 03:49:31;;;;;;;12.70;6.90;;;;;;;16.22;93.27;94652.75;5054659;28;20230;-79
2023/06/02 03:51:57;;;;;;;15.32;6.18;;;;;;;16.32;93.01;94659.22;5045202;28;20199;-80
2023/06/02 03:54:22;;;;;;;16.45;7.35;;;;;;;16.51;92.77;94676.41;5039811;28;20214;-80
2023/06/02 03:56:49;;;;;;;15.43;9.23;;;;;;;16.59;92.43;94660.00;5045320;28;20202;-78
2023/06/02 03:59:14;;;;;;;16.65;8.07;;;;;;;16.72;92.51;94646.31;5040355;28;20182;-80
2023/06/02 04:01:41;;;;;;;31.27;14.45;;;;;;;16.83;92.08;94637.38;5045284;28;20173;-81
2023/06/02 04:04:11;;;;;;;16.92;10.18;;;;;;;17.01;91.97;94630.03;5045781;28;20771;-79
2023/06/02 04:06:37;;;;;;;14.45;7.82;;;;;;;17.40;90.70;94662.47;5054385;28;20160;-82
2023/06/02 04:09:03;;;;;;;14.73;6.95;;;;;;;17.59;89.04;94669.75;5045620;28;20537;-80
2023/06/02 04:11:28;;;;;;;17.15;9.00;;;;;;;17.73;87.96;94660.25;5044677;28;20187;-79
2023/06/02 04:13:54;;;;;;;21.40;6.85;;;;;;;17.98;86.55;94672.91;5040394;28;20265;-81
2023/06/02 04:16:19;;;;;;;12.32;6.15;;;;;;;17.93;85.03;94675.53;5042768;28;20179;-76
2023/06/02 04:18:45;;;;;;;15.70;7.43;;;;;;;18.02;85.32;94676.63;5047975;28;20206;-80
2023/06/02 04:21:10;;;;;;;16.92;7.32;;;;;;;18.22;84.68;94677.78;5040864;28;20186;-82
2023/06/02 04:23:36;;;;;;;21.63;6.85;;;;;;;18.44;84.10;94673.81;5040358;28;20175;-82
2023/06/02 04:26:01;;;;;;;15.05;8.10;;;;;;;18.60;83.93;94668.53;5053971;28;20186;-80
2023/06/02 04:28:27;;;;;;;15.20;7.03;;;;;;;18.69;82.59;94650.94;5053612;28;20238;-80
2023/06/02 04:30:55;;;;;;;15.43;7.13;;;;;;;19.00;82.16;94665.91;5053694;28;20162;-81
2023/06/02 04:33:21;;;;;;;16.15;6.65;;;;;;;19.06;81.30;94643.47;5053207;28;20175;-81
2023/06/02 04:35:47;;;;;;;14.98;7.32;;;;;;;19.43;80.81;94667.19;5053552;28;20151;-82
2023/06/02 04:38:13;;;;;;;17.15;7.80;;;;;;;19.70;81.20;94671.41;5043189;28;20191;-81
2023/06/02 04:40:39;;;;;;;16.02;8.18;;;;;;;19.83;78.76;94650.25;5041747;28;20200;-82
2023/06/02 04:43:05;;;;;;;19.38;7.57;;;;;;;20.17;78.11;94677.09;5050005;28;20579;-82
2023/06/02 04:45:30;;;;;;;13.20;7.28;;;;;;;20.19;76.95;94650.09;5041251;28;20927;-80
2023/06/02 04:47:56;;;;;;;14.30;7.32;;;;;;;20.57;75.55;94661.94;5032857;28;20242;-80
2023/06/02 04:50:22;;;;;;;14.05;7.43;;;;;;;20.95;74.27;94679.84;5031890;28;20608;-80
2023/06/02 04:52:47;;;;;;;13.10;6.68;;;;;;;21.29;73.97;94687.09;5032904;28;20171;-80
2023/06/02 04:55:13;;;;;;;16.70;6.70;;;;;;;21.54;71.51;94691.41;5041484;28;20547;-80
2023/06/02 04:57:39;;;;;;;13.43;7.45;;;;;;;21.80;70.70;94693.53;5042376;28;20195;-82
2023/06/02 05:00:06;;;;;;;13.00;6.53;;;;;;;22.08;68.77;94694.59;5041266;28;20234;-81
2023/06/02 05:02:31;;;;;;;15.93;7.18;;;;;;;22.38;69.34;94693.44;5034697;28;20178;-81
2023/06/02 05:04:57;;;;;;;19.70;7.15;;;;;;;22.72;67.82;94695.13;5044500;28;20170;-81
2023/06/02 05:07:23;;;;;;;17.45;7.60;;;;;;;23.10;66.96;94703.94;5036812;28;20604;-81
2023/06/02 05:09:48;;;;;;;13.77;7.20;;;;;;;23.35;65.07;94675.91;5032898;28;20215;-82
2023/06/02 05:12:16;;;;;;;14.20;7.07;;;;;;;23.76;64.79;94678.69;5032922;28;20247;-82
2023/06/02 05:14:42;;;;;;;14.63;7.95;;;;;;;24.12;61.73;94703.00;5033362;28;20160;-84
2023/06/02 05:17:08;;;;;;;10.98;7.30;;;;;;;24.31;62.81;94688.34;5032759;28;20247;-84
2023/06/02 05:19:34;;;;;;;13.93;6.78;;;;;;;24.62;62.53;94709.25;5032751;28;20160;-80
2023/06/02 05:22:00;;;;;;;10.77;7.55;;;;;;;24.66;60.58;94702.16;5039838;28;20180;-82
2023/06/02 05:24:25;;;;;;;23.52;10.32;;;;;;;24.87;59.18;94706.00;5041448;28;20191;-82
2023/06/02 05:26:50;;;;;;;16.00;8.63;;;;;;;25.24;59.36;94690.63;5042686;28;20671;-82
2023/06/02 05:29:16;;;;;;;11.73;7.18;;;;;;;25.81;59.08;94703.19;5039507;28;20182;-82
2023/06/02 05:31:41;;;;;;;13.65;8.63;;;;;;;26.17;57.05;94681.44;5032590;28;20246;-81
2023/06/02 05:34:07;;;;;;;7.18;5.72;;;;;;;26.53;53.59;94685.84;5041133;28;20175;-81
2023/06/02 05:36:32;;;;;;;15.30;10.25;;;;;;;26.45;52.15;94694.72;5041040;28;20247;-81
2023/06/02 05:38:59;;;;;;;17.80;7.25;;;;;;;26.47;52.53;94685.19;5041667;28;20192;-81
2023/06/02 05:41:27;;;;;;;19.42;10.45;;;;;;;26.82;52.31;94680.63;5039498;28;20179;-82
2023/06/02 05:43:53;;;;;;;17.90;10.75;;;;;;;27.31;51.52;94687.50;5030902;28;20561;-81
2023/06/02 05:46:18;;;;;;;11.45;6.38;;;;;;;27.63;50.70;94674.56;5032412;28;20175;-81
2023/06/02 05:48:43;;;;;;;15.23;10.60;;;;;;;27.72;49.84;94700.50;5040386;28;20215;-82
2023/06/02 05:51:09;;;;;;;17.13;9.95;;;;;;;27.41;49.28;94689.88;5041955;28;20325;-82
2023/06/02 05:53:34;;;;;;;12.65;6.55;;;;;;;27.12;51.62;94699.75;5043655;28;20171;-82
2023/06/02 05:56:00;;;;;;;8.00;5.93;;;;;;;26.98;54.12;94683.72;5042765;28;20179;-82
2023/06/02 05:58:25;;;;;;;12.00;5.55;;;;;;;27.05;52.97;94694.81;5052037;28;20217;-82
2023/06/02 06:00:51;;;;;;;12.85;6.65;;;;;;;26.95;51.23;94676.22;5052402;28;20162;-81
2023/06/02 06:03:16;;;;;;;10.65;5.45;;;;;;;26.75;51.59;94676.81;5052158;28;20232;-84
2023/06/02 06:05:42;;;;;;;11.40;5.70;;;;;;;26.82;51.54;94699.53;5052150;28;20233;-83
2023/06/02 06:08:07;;;;;;;10.60;6.28;;;;;;;26.83;52.70;94679.53;5052257;28;20238;-84
2023/06/02 06:10:32;;;;;;;11.48;6.18;;;;;;;27.15;52.87;94672.88;5049659;28;20163;-83
2023/06/02 06:12:58;;;;;;;11.52;6.25;;;;;;;27.62;52.99;94700.03;5037877;28;20232;-83
2023/06/02 06:15:23;;;;;;;8.15;6.13;;;;;;;27.81;52.36;94700.47;5043151;28;20167;-83
2023/06/02 06:17:51;;;;;;;13.10;6.38;;;;;;;27.82;49.71;94703.97;5043789;28;20198;-85
2023/06/02 06:20:17;;;;;;;10.45;6.53;;;;;;;27.71;52.83;94689.97;5052143;28;20152;-84
2023/06/02 06:22:43;;;;;;;8.30;4.63;;;;;;;27.53;50.62;94683.78;5052065;28;20202;-82
2023/06/02 06:25:12;;;;;;;21.98;6.72;;;;;;;27.28;49.24;94680.00;5051573;28;20663;-81
2023/06/02 06:27:38;;;;;;;15.43;6.40;;;;;;;26.93;51.88;94706.25;5043850;28;20672;-81
2023/06/02 06:30:04;;;;;;;9.55;4.95;;;;;;;26.92;50.93;94701.16;5043427;28;20674;-80
2023/06/02 06:32:30;;;;;;;12.82;5.50;;;;;;;26.79;49.61;94678.56;5043978;28;20728;-84
2023/06/02 06:34:56;;;;;;;9.45;6.45;;;;;;;26.84;50.18;94700.03;5046960;28;20167;-81
2023/06/02 06:37:21;;;;;;;8.35;5.22;;;;;;;26.28;49.47;94672.00;5032090;28;20188;-80
2023/06/02 06:39:47;;;;;;;6.80;5.10;;;;;;;26.16;51.34;94679.84;5032087;28;20258;-84
2023/06/02 06:42:12;;;;;;;12.68;5.93;;;;;;;26.46;51.77;94685.53;5031865;28;20242;-83
2023/06/02 06:44:38;;;;;;;15.38;5.80;;;;;;;26.57;50.20;94697.59;5031763;28;20156;-82
2023/06/02 06:47:03;;;;;;;10.52;5.05;;;;;;;26.24;51.02;94673.69;5040408;28;20221;-87
2023/06/02 06:49:29;;;;;;;9.93;5.13;;;;;;;26.02;50.30;94683.78;5039991;28;20709;-89
2023/06/02 06:51:54;;;;;;;7.25;5.10;;;;;;;25.61;51.99;94654.38;5040152;28;20178;-83
2023/06/02 06:54:19;;;;;;;9.60;4.72;;;;;;;25.46;51.33;94650.97;5043704;28;20167;-83
2023/06/02 06:56:45;;;;;;;7.40;4.82;;;;;;;25.46;53.16;94658.25;5030134;28;21000;-82
2023/06/02 06:59:11;;;;;;;9.45;4.85;;;;;;;25.67;54.06;94645.06;5032778;28;20171;-84
2023/06/02 07:01:38;;;;;;;9.43;4.35;;;;;;;26.03;51.69;94685.38;5043559;28;20662;-84
2023/06/02 07:04:03;;;;;;;7.20;4.15;;;;;;;26.15;56.40;94680.94;5050692;28;20174;-83
2023/06/02 07:06:29;;;;;;;9.45;4.68;;;;;;;26.54;52.70;94690.16;5053881;28;20179;-86
2023/06/02 07:08:55;;;;;;;8.95;4.95;;;;;;;26.80;52.59;94693.69;5055187;28;20187;-82
2023/06/02 07:11:20;;;;;;;7.57;4.53;;;;;;;27.01;51.25;94701.97;5055121;28;20194;-83
2023/06/02 07:13:46;;;;;;;10.32;4.82;;;;;;;26.72;50.17;94675.56;5052001;28;20619;-83
2023/06/02 07:16:11;;;;;;;9.00;5.07;;;;;;;26.97;51.01;94684.81;5036548;28;20274;-83
2023/06/02 07:18:37;;;;;;;7.03;4.93;;;;;;;26.76;48.55;94687.31;5043012;28;20196;-83
2023/06/02 07:21:02;;;;;;;8.77;5.05;;;;;;;26.39;49.22;94691.38;5037274;28;20186;-83
2023/06/02 07:23:27;;;;;;;7.00;4.60;;;;;;;25.79;51.22;94664.94;5048510;28;20206;-83
2023/06/02 07:25:53;;;;;;;9.27;4.15;;;;;;;25.26;51.46;94599.47;5050626;28;20175;-83
2023/06/02 07:28:18;;;;;;;10.60;5.40;;;;;;;25.89;53.28;94683.56;5050027;28;20203;-83
2023/06/02 07:30:52;;;;;;;9.07;5.22;;;;;;;25.78;51.31;94700.31;5050772;28;20184;-82
2023/06/02 07:33:18;;;;;;;7.22;4.75;;;;;;;25.26;51.36;94709.97;5049791;28;20208;-83
2023/06/02 07:35:43;;;;;;;9.35;4.72;;;;;;;24.68;53.25;94683.81;5050895;28;20195;-83
2023/06/02 07:38:10;;;;;;;8.40;4.43;;;;;;;24.47;52.41;94704.19;5052475;28;20783;-83
2023/06/02 07:40:36;;;;;;;9.38;4.53;;;;;;;24.31;53.74;94712.56;5052407;28;20175;-83
2023/06/02 07:43:02;;;;;;;10.15;5.28;;;;;;;24.14;56.54;94711.53;5038855;28;20197;-83
2023/06/02 07:45:27;;;;;;;7.20;5.30;;;;;;;23.86;55.14;94690.03;5031402;28;20257;-83
2023/06/02 07:47:52;;;;;;;8.57;4.40;;;;;;;23.61;55.33;94710.09;5039451;28;20202;-83
2023/06/02 07:50:18;;;;;;;11.90;7.32;;;;;;;23.34;56.35;94677.78;5032550;28;20184;-83
2023/06/02 07:52:45;;;;;;;5.75;4.18;;;;;;;23.07;57.25;94661.59;5033974;28;20172;-83
2023/06/02 07:55:11;;;;;;;8.40;4.60;;;;;;;23.38;57.55;94704.84;5030744;28;20566;-83
2023/06/02 07:57:36;;;;;;;8.45;4.80;;;;;;;23.19;57.30;94676.13;5032220;28;20200;-83
2023/06/02 08:00:16;;;;;;;6.10;3.97;;;;;;;23.28;58.66;94690.50;5031921;28;20174;-83
2023/06/02 08:02:48;;;;;;;9.40;4.90;;;;;;;23.23;58.10;94687.09;5032251;28;20174;-83
2023/06/02 08:05:17;;;;;;;12.18;5.35;;;;;;;23.12;59.20;94693.72;5040862;28;20178;-83
2023/06/02 08:07:43;;;;;;;12.20;5.47;;;;;;;23.19;59.39;94708.38;5051784;28;20171;-83
2023/06/02 08:10:10;;;;;;;10.45;4.78;;;;;;;23.02;62.10;94697.34;5051783;28;20179;-83
2023/06/02 08:12:35;;;;;;;8.38;4.93;;;;;;;23.02;61.75;94683.13;5049150;28;20179;-83
2023/06/02 08:15:01;;;;;;;10.65;5.20;;;;;;;23.29;59.50;94697.47;5032080;28;20179;-83
2023/06/02 08:17:29;;;;;;;8.80;5.07;;;;;;;23.36;59.31;94683.63;5031797;28;20195;-83
2023/06/02 08:19:59;;;;;;;9.50;4.68;;;;;;;23.32;58.20;94669.22;5031959;28;20183;-83
2023/06/02 08:22:28;;;;;;;11.32;6.18;;;;;;;23.26;59.70;94644.31;5031694;28;20255;-83
2023/06/02 08:24:54;;;;;;;9.73;6.07;;;;;;;23.56;60.49;94686.00;5031887;28;20682;-83
2023/06/02 08:27:21;;;;;;;12.05;5.35;;;;;;;23.54;60.58;94682.81;5031683;28;20251;-83
2023/06/02 08:29:49;;;;;;;10.30;4.53;;;;;;;23.29;58.31;94638.34;5035294;28;20209;-82
2023/06/02 08:32:18;;;;;;;11.32;5.78;;;;;;;23.69;58.60;94676.38;5051670;28;20170;-83
2023/06/02 08:34:47;;;;;;;8.95;5.70;;;;;;;23.53;58.33;94666.97;5051322;28;20693;-82
2023/06/02 08:37:17;;;;;;;8.20;4.63;;;;;;;23.29;56.09;94632.19;5050549;28;20248;-83
2023/06/02 08:39:46;;;;;;;6.75;4.30;;;;;;;23.49;57.14;94642.59;5051433;28;20662;-83
2023/06/02 08:42:12;;;;;;;9.77;4.38;;;;;;;23.58;56.02;94634.66;5044654;28;20176;-83
2023/06/02 08:44:40;;;;;;;7.70;4.03;;;;;;;23.67;56.32;94628.28;5031201;28;20167;-83
2023/06/02 08:47:11;;;;;;;9.07;4.97;;;;;;;24.01;59.02;94654.78;5031660;28;20545;-83
2023/06/02 08:49:43;;;;;;;8.95;4.75;;;;;;;24.30;57.53;94635.63;5031359;28;20288;-83
2023/06/02 08:52:11;;;;;;;8.80;4.18;;;;;;;24.72;53.41;94653.28;5030142;28;20176;-83
2023/06/02 08:54:39;;;;;;;8.30;4.80;;;;;;;25.02;56.32;94634.81;5031414;28;20262;-83
2023/06/02 08:57:05;;;;;;;9.23;4.70;;;;;;;25.18;56.63;94607.19;5031065;28;20268;-83
2023/06/02 08:59:31;;;;;;;11.93;5.30;;;;;;;25.57;57.44;94605.66;5031373;28;20179;-83
2023/06/02 09:02:00;;;;;;;12.70;5.15;;;;;;;26.06;55.80;94636.94;5030997;28;20171;-82
2023/06/02 09:04:25;;;;;;;9.10;4.57;;;;;;;26.18;55.80;94633.66;5029935;28;20175;-83
2023/06/02 09:07:13;;;;;;;8.10;4.88;;;;;;;26.38;55.00;94632.31;5047545;28;20178;-83
2023/06/02 09:09:40;;;;;;;10.05;4.85;;;;;;;26.50;55.51;94624.38;5049107;28;20183;-83
2023/06/02 09:12:08;;;;;;;7.53;4.97;;;;;;;26.66;53.32;94620.88;5050065;28;20623;-83
2023/06/02 09:14:34;;;;;;;9.60;5.30;;;;;;;26.67;51.23;94595.47;5047845;28;20163;-83
2023/06/02 09:17:00;;;;;;;8.68;5.53;;;;;;;26.82;51.27;94606.88;5030766;28;20589;-83
2023/06/02 09:19:25;;;;;;;14.52;6.05;;;;;;;26.95;51.39;94622.19;5030368;28;20179;-83
2023/06/02 09:21:51;;;;;;;8.57;5.38;;;;;;;26.70;50.64;94588.63;5030180;28;20215;-83
2023/06/02 09:24:33;;;;;;;5.43;3.53;;;;;;;26.68;48.08;94615.16;5043958;28;20175;-83
2023/06/02 09:26:59;;;;;;;6.65;3.95;;;;;;;26.14;47.43;94576.81;5038495;28;20678;-83
2023/06/02 09:29:26;;;;;;;12.43;4.65;;;;;;;25.75;47.54;94566.88;5030335;28;20197;-83
2023/06/02 09:31:53;;;;;;;8.95;5.00;;;;;;;25.55;50.06;94562.81;5030670;28;20566;-83
2023/06/02 09:34:20;;;;;;;9.70;5.13;;;;;;;25.84;49.87;94608.19;5037565;28;20728;-83
2023/06/02 09:36:53;;;;;;;6.03;4.22;;;;;;;25.67;49.15;94616.19;5042107;28;20175;-84
2023/06/02 09:39:33;;;;;;;7.85;4.82;;;;;;;25.12;48.75;94586.88;5028732;28;20568;-84
2023/06/02 09:42:00;;;;;;;4.80;3.75;;;;;;;25.04;51.81;94582.25;5030437;28;20649;-83
2023/06/02 09:44:26;;;;;;;8.07;3.70;;;;;;;25.26;48.07;94604.84;5030734;28;20279;-83
2023/06/02 09:46:51;;;;;;;8.85;4.05;;;;;;;25.13;47.92;94584.97;5030676;28;20183;-84
2023/06/02 09:49:17;;;;;;;6.85;3.72;;;;;;;25.29;49.62;94586.19;5030121;28;20250;-84
2023/06/02 09:51:42;;;;;;;7.85;4.05;;;;;;;25.54;49.16;94592.78;5030320;28;20183;-84
2023/06/02 09:54:08;;;;;;;4.90;3.55;;;;;;;25.70;50.51;94585.91;5028982;28;20175;-83
2023/06/02 09:56:37;;;;;;;7.70;4.20;;;;;;;25.78;47.32;94566.25;5033693;28;20637;-84
2023/06/02 09:59:07;;;;;;;8.00;4.35;;;;;;;25.56;47.65;94564.41;5043382;28;20214;-83
2023/06/02 10:01:33;;;;;;;7.30;3.97;;;;;;;25.18;46.23;94556.00;5032291;28;20209;-83
2023/06/02 10:03:59;;;;;;;18.13;5.20;;;;;;;25.23;47.76;94587.41;5044954;28;20186;-84
2023/06/02 10:07:06;;;;;;;6.65;4.00;;;;;;;25.26;51.73;94583.28;5040574;28;20180;-83
2023/06/02 10:09:54;;;;;;;4.47;3.50;;;;;;;25.19;46.93;94583.75;5038542;28;20560;-83
2023/06/02 10:12:56;;;;;;;9.68;3.60;;;;;;;25.28;50.63;94573.00;5041823;28;20178;-84
2023/06/02 10:15:31;;;;;;;5.10;3.88;;;;;;;25.15;47.98;94575.50;5042470;28;20686;-83
2023/06/02 10:18:14;;;;;;;4.80;3.75;;;;;;;25.16;49.59;94568.22;5049764;28;20748;-83
2023/06/02 10:20:46;;;;;;;8.00;4.32;;;;;;;25.18;50.24;94566.78;5048592;28;20236;-83
2023/06/02 10:23:30;;;;;;;6.97;4.43;;;;;;;25.27;50.71;94561.44;5049763;28;20654;-83
2023/06/02 10:26:22;;;;;;;9.05;3.78;;;;;;;25.45;52.21;94576.56;5047093;28;20187;-83
2023/06/02 10:28:48;;;;;;;7.82;4.20;;;;;;;25.34;49.26;94547.53;5029701;28;20184;-83
2023/06/02 10:31:15;;;;;;;8.07;4.70;;;;;;;25.25;51.89;94562.88;5029514;28;20175;-83
2023/06/02 10:33:43;;;;;;;5.85;3.90;;;;;;;25.25;49.76;94560.97;5033983;28;20172;-83
2023/06/02 10:36:08;;;;;;;6.15;4.07;;;;;;;25.29;49.33;94558.44;5033810;28;20544;-83
2023/06/02 10:38:36;;;;;;;9.15;4.10;;;;;;;25.29;51.52;94564.63;5033724;28;20207;-84
2023/06/02 10:41:02;;;;;;;5.38;3.47;;;;;;;24.98;48.38;94539.59;5041999;28;20172;-83
2023/06/02 10:43:28;;;;;;;9.10;4.30;;;;;;;25.01;51.09;94549.72;5038435;28;20269;-84
2023/06/02 10:46:17;;;;;;;9.05;4.70;;;;;;;25.05;51.04;94546.13;5053550;28;20642;-83
2023/06/02 10:48:43;;;;;;;5.38;4.13;;;;;;;25.13;51.58;94545.38;5053339;28;20642;-84
2023/06/02 10:51:10;;;;;;;6.05;3.90;;;;;;;25.09;49.34;94541.69;5052276;28;20699;-83
2023/06/02 10:54:07;;;;;;;6.35;3.70;;;;;;;25.07;49.31;94545.81;5053515;28;20179;-84
2023/06/02 10:56:43;;;;;;;6.35;3.97;;;;;;;24.82;47.96;94521.06;5025586;28;20285;-84
2023/06/02 10:59:10;;;;;;;9.70;3.88;;;;;;;24.99;51.45;94538.47;5048653;28;20214;-84
2023/06/02 11:01:47;;;;;;;6.57;3.47;;;;;;;25.14;48.90;94543.47;5023907;28;20187;-84
2023/06/02 11:04:31;;;;;;;12.85;3.70;;;;;;;25.22;49.05;94542.72;5033468;28;20211;-85
2023/06/02 11:07:23;;;;;;;6.63;4.00;;;;;;;25.15;47.86;94543.16;5047132;28;20175;-81
2023/06/02 11:09:59;;;;;;;8.82;4.43;;;;;;;25.04;48.93;94538.34;5045239;28;20990;-83
2023/06/02 11:12:50;;;;;;;6.43;3.83;;;;;;;25.21;46.97;94532.22;5037878;28;20627;-83
2023/06/02 11:15:19;;;;;;;7.78;3.53;;;;;;;25.31;48.39;94530.06;5035013;28;20223;-83
2023/06/02 11:17:47;;;;;;;8.00;4.15;;;;;;;25.41;50.48;94524.41;5034937;28;20275;-82
2023/06/02 11:20:13;;;;;;;7.60;3.65;;;;;;;25.45;48.74;94527.25;5049086;28;20174;-85
2023/06/02 11:22:39;;;;;;;5.25;3.67;;;;;;;25.19;50.94;94484.03;5046291;28;20186;-81
2023/06/02 11:25:05;;;;;;;4.10;2.85;;;;;;;25.45;45.56;94528.06;5044976;28;20187;-81
2023/06/02 11:27:57;;;;;;;6.00;3.63;;;;;;;25.27;47.31;94514.81;5038267;28;20263;-81
2023/06/02 11:30:24;;;;;;;12.00;4.78;;;;;;;25.30;50.24;94517.69;5045004;28;20195;-80
2023/06/02 11:32:51;;;;;;;9.45;3.63;;;;;;;25.44;51.04;94510.28;5035445;28;20183;-81